Home > Products > Valid Products > TAF

000
FTUS45 KMSO 312337
TAFGPI
TAF
KGPI 312337Z 0100/0124 19005KT P6SM BKN100
     FM011000 VRB03KT 3SM BR SCT002 BKN140
     FM011500 02006KT P6SM OVC100
     FM011800 02010KT P6SM VCSH OVC080=



000
FTUS45 KMSO 312337
TAFSMN
TAF
KSMN 312337Z 0100/0124 VRB04KT P6SM SCT150
     FM012000 18010KT P6SM VCSH BKN100
      AMD LTD TO CLD VIS AND WIND=



000
FTUS45 KMSO 312337
TAFMSO
TAF
KMSO 312337Z 0100/0124 VRB04KT P6SM SCT150
     FM011200 VRB03KT P6SM VCFG SCT002 BKN150
     FM011500 32005KT P6SM OVC120
     FM012000 34008KT P6SM VCSH OVC100=



000
FTUS45 KMSO 312337
TAFBTM
TAF
KBTM 312337Z 0100/0124 19010KT P6SM BKN110
     FM010300 VRB03KT P6SM SCT100
     FM011900 16010KT P6SM VCSH BKN100=



000
FTUS45 KMSO 311720
TAFMSO
TAF
KMSO 311720Z 3118/0118 00000KT 4SM BR FEW003 FEW150
     FM311900 29004KT P6SM SCT150=



000
FTUS45 KMSO 311720
TAFGPI
TAF
KGPI 311720Z 3118/0118 00000KT 3SM BR SCT002
     FM311900 VRB03KT P6SM FEW004 SCT150
     FM312000 19004KT P6SM SCT150=



000
FTUS45 KMSO 311720
TAFSMN
TAF
KSMN 311720Z 3118/0118 VRB04KT P6SM SCT150
      AMD LTD TO CLD VIS AND WIND=



000
FTUS45 KMSO 311720
TAFBTM
TAF
KBTM 311720Z 3118/0118 VRB03KT P6SM FEW150
     FM311900 19008KT P6SM SCT150=



000
FTUS45 KMSO 311701 AAE
TAFMSO
TAF AMD
KMSO 311701Z 3117/0112 00000KT 4SM BR FEW003 FEW150
     FM311800 29004KT P6SM SCT150=



000
FTUS45 KMSO 311701 AAD
TAFGPI
TAF AMD
KGPI 311701Z 3117/0112 00000KT 3SM BR OVC002
     FM311800 VRB03KT P6SM FEW004 SCT150
     FM311900 19004KT P6SM SCT150=



000
FTUS45 KMSO 311701 AAD
TAFGPI
TAF AMD
KGPI 311701Z 3117/0112 00000KT 3SM BR OVC002
     FM311800 VRB03KT P6SM FEW004 SCT150
     FM311900 19004KT P6SM SCT150=



000
FTUS45 KMSO 311621 AAC
TAFGPI
TAF AMD
KGPI 311621Z 3116/0112 00000KT 3/4SM BR SCT002
      TEMPO 3116/3117 1/4SM FG VV002
     FM311700 VRB03KT P6SM FEW004 SCT150
     FM311800 19004KT P6SM SCT150=



000
FTUS45 KMSO 311449 AAB
TAFGPI
TAF AMD
KGPI 311449Z 3115/0112 00000KT 3/4SM BR SCT002
      TEMPO 3115/3116 1/4SM FG VV002
     FM311600 VRB03KT P6SM FEW004 SCT150
     FM311800 19004KT P6SM SCT150=



000
FTUS45 KMSO 311236 AAB
TAFMSO
TAF AMD
KMSO 311236Z 3113/0112 00000KT 4SM BR FEW003 FEW150
      TEMPO 3113/3115 1SM BR
     FM311600 29004KT P6SM SCT150=



000
FTUS45 KMSO 311228 AAA
TAFGPI
TAF AMD
KGPI 311228Z 3112/0112 00000KT 4SM BR SCT002
      TEMPO 3112/3114 1SM BR
     FM311500 VRB03KT P6SM FEW004 SCT150
     FM311800 19004KT P6SM SCT150=



000
FTUS45 KMSO 311150
TAFSMN
TAF
KSMN 311150Z 3112/0112 VRB04KT P6SM SCT150
      AMD LTD TO CLD VIS AND WIND=



000
FTUS45 KMSO 311150
TAFBTM
TAF
KBTM 311150Z 3112/0112 VRB03KT P6SM FEW150
     FM311900 19008KT P6SM SCT150=



000
FTUS45 KMSO 311150
TAFGPI
TAF
KGPI 311150Z 3112/0112 00000KT 1/4SM FG VV001
      TEMPO 3112/3114 2SM BR SCT001
     FM311600 VRB03KT 4SM BR FEW004 SCT150
     FM311800 19004KT P6SM SCT150=



000
FTUS45 KMSO 311150
TAFMSO
TAF
KMSO 311150Z 3112/0112 00000KT 4SM BR FEW003 FEW150
      TEMPO 3112/3114 1/2SM FG VV001
     FM311600 29004KT P6SM SCT150=



000
FTUS45 KMSO 311007 AAB
TAFGPI
TAF AMD
KGPI 311007Z 3110/0106 00000KT 1/4SM FG VV001
      TEMPO 3110/3114 2SM BR SCT001
     FM311600 VRB03KT 4SM BR FEW004 SCT150
     FM311800 19004KT P6SM SCT150=



000
FTUS45 KMSO 311007 AAB
TAFGPI
TAF AMD
KGPI 311007Z 3110/0106 00000KT 1/4SM FG VV001
      TEMPO 3110/3114 2SM BR SCT001
     FM311600 VRB03KT 4SM BR FEW004 SCT150
     FM311800 19004KT P6SM SCT150=



000
FTUS45 KMSO 311006 AAB
TAFMSO
TAF AMD
KMSO 311006Z 3110/0106 00000KT 4SM BR FEW003 FEW150
      TEMPO 3110/3114 1/2SM FG VV001
     FM311600 29004KT P6SM SCT150=



000
FTUS45 KMSO 311006 AAB
TAFMSO
TAF AMD
KMSO 311006Z 3110/0106 00000KT 4SM BR FEW003 FEW150
      TEMPO 3110/3114 1/2SM FG VV001
     FM311600 29004KT P6SM SCT150=



000
FTUS45 KMSO 310729 AAA
TAFGPI
TAF AMD
KGPI 310729Z 3107/0106 00000KT 2SM BR SCT002
      TEMPO 3107/3111 1/4SM FG VV001
     FM311600 VRB03KT 5SM BR FEW004 SCT150
     FM311800 19004KT P6SM SCT150=



000
FTUS45 KMSO 310530
TAFMSO
TAF
KMSO 310530Z 3106/0106 00000KT P6SM FEW150
     FM310800 00000KT 4SM BR FEW003 FEW150
     FM311600 29004KT P6SM SCT150=



000
FTUS45 KMSO 310530
TAFSMN
TAF
KSMN 310530Z 3106/0106 VRB04KT P6SM SCT150
      AMD LTD TO CLD VIS AND WIND=



000
FTUS45 KMSO 310530
TAFBTM
TAF
KBTM 310530Z 3106/0106 VRB03KT P6SM FEW150
     FM311900 19008KT P6SM SCT150=



000
FTUS45 KMSO 310530
TAFGPI
TAF
KGPI 310530Z 3106/0106 VRB03KT 4SM BR SCT150
     FM310900 00000KT 2SM BR SCT002
     FM311600 VRB03KT 5SM BR FEW004 SCT150
     FM311800 19004KT P6SM SCT150=



000
FTUS45 KMSO 310348 AAA
TAFGPI
TAF AMD
KGPI 310348Z 3104/3124 VRB03KT P6SM SCT100
     FM310600 VRB03KT 4SM BR SCT150
     FM310900 00000KT 2SM BR SCT002
     FM311600 VRB03KT 5SM BR FEW004 SCT170
     FM311800 19004KT P6SM SCT120=



000
FTUS45 KMSO 310348 AAA
TAFGPI
TAF AMD
KGPI 310348Z 3104/3124 VRB03KT P6SM SCT100
     FM310600 VRB03KT 4SM BR SCT150
     FM310900 00000KT 2SM BR SCT002
     FM311600 VRB03KT 5SM BR FEW004 SCT170
     FM311800 19004KT P6SM SCT120=



000
FTUS45 KMSO 302324
TAFMSO
TAF
KMSO 302324Z 3100/3124 VRB03KT P6SM BKN150
     FM311200 15003KT 4SM BR SCT120
     FM311600 VRB03KT P6SM SCT150=



000
FTUS45 KMSO 302320
TAFSMN
TAF
KSMN 302320Z 3100/3124 VRB04KT P6SM SCT150
      AMD LTD TO CLD VIS AND WIND=



000
FTUS45 KMSO 302320
TAFBTM
TAF
KBTM 302320Z 3100/3124 15005KT P6SM SCT120
     FM311900 19008KT P6SM SCT150=



000
FTUS45 KMSO 302320
TAFMSO
TAF
KMSO 302320Z 3100/3124 12003KT P6SM BKN150
     FM311200 15003KT 4SM BR SCT120
     FM311600 VRB03KT P6SM SCT150=



000
FTUS45 KMSO 302320
TAFGPI
TAF
KGPI 302320Z 3100/3124 05005KT P6SM SCT080 OVC120
     FM310400 02003KT 4SM BR SCT002 SCT150
     FM310900 00000KT 2SM BR SCT002
     FM311600 VRB03KT 5SM BR FEW004 SCT170
     FM311800 19004KT P6SM SCT120=



000
FTUS45 KMSO 301726
TAFBTM
TAF
KBTM 301726Z 3018/3118 VRB05KT P6SM FEW080 BKN120
     FM302000 18008KT P6SM BKN120=



000
FTUS45 KMSO 301726
TAFSMN
TAF
KSMN 301726Z 3018/3118 00000KT P6SM BKN140
      AMD LTD TO CLD VIS AND WIND=



000
FTUS45 KMSO 301726
TAFGPI
TAF
KGPI 301726Z 3018/3118 00000KT 6SM BR FEW004 SCT120
     FM302000 08005KT P6SM SCT120 OVC150
     FM310400 00000KT 4SM BR SCT001=



000
FTUS45 KMSO 301726
TAFMSO
TAF
KMSO 301726Z 3018/3118 00000KT P6SM SCT004 SCT130
     FM302000 12003KT P6SM BKN150=



000
FTUS45 KMSO 301726
TAFBTM
TAF
KBTM 301726Z 3018/3118 VRB05KT P6SM FEW080 BKN120
     FM302000 18008KT P6SM BKN120=



000
FTUS45 KMSO 301726
TAFSMN
TAF
KSMN 301726Z 3018/3118 00000KT P6SM BKN140
      AMD LTD TO CLD VIS AND WIND=



000
FTUS45 KMSO 301726
TAFGPI
TAF
KGPI 301726Z 3018/3118 00000KT 6SM BR FEW004 SCT120
     FM302000 08005KT P6SM SCT120 OVC150
     FM310400 00000KT 4SM BR SCT001=



000
FTUS45 KMSO 301726
TAFMSO
TAF
KMSO 301726Z 3018/3118 00000KT P6SM SCT004 SCT130
     FM302000 12003KT P6SM BKN150=



000
FTUS45 KMSO 301610 AAA
TAFGPI
TAF AMD
KGPI 301610Z 3016/3112 00000KT 1SM BR BKN005
      TEMPO 3016/3018 1/2SM FG VV002
     FM301800 VRB03KT P6SM VCFG FEW001 SCT120 OVC150
     FM302100 08005KT P6SM SCT120 OVC150
     FM310400 00000KT 4SM BR SCT001=



000
FTUS45 KMSO 301358 AAB
TAFMSO
TAF AMD
KMSO 301358Z 3014/3112 00000KT 2SM BR SCT002 OVC050
      TEMPO 3014/3016 3/4SM BR
     FM301600 12003KT P6SM BKN150=



000
FTUS45 KMSO 301314 AAA
TAFMSO
TAF AMD
KMSO 301314Z 3013/3112 00000KT 1/2SM FG BKN003 OVC050
      TEMPO 3013/3016 1/4SM FG BKN001
     FM301600 12003KT P6SM BKN150=



000
FTUS45 KMSO 301124
TAFGPI
TAF
KGPI 301124Z 3012/3112 00000KT 1SM BR BKN005
      TEMPO 3012/3016 1/4SM FG VV002
     FM301600 00000KT P6SM VCFG FEW001 SCT120 OVC150
     FM301800 08005KT P6SM SCT120 OVC150
     FM310400 00000KT 4SM BR SCT001=



000
FTUS45 KMSO 301124
TAFSMN
TAF
KSMN 301124Z 3012/3112 00000KT P6SM BKN100
      AMD LTD TO CLD VIS AND WIND=



000
FTUS45 KMSO 301124
TAFMSO
TAF
KMSO 301124Z 3012/3112 00000KT 2SM BR FEW002 OVC050
      TEMPO 3012/3016 3/4SM BR SCT002
     FM301600 12003KT P6SM BKN150=



000
FTUS45 KMSO 301124
TAFBTM
TAF
KBTM 301124Z 3012/3112 VRB05KT P6SM BKN100=



000
FTUS45 KMSO 300849 AAB
TAFGPI
TAF AMD
KGPI 300849Z 3009/3106 00000KT 1SM BR BKN003
      TEMPO 3009/3013 1/4SM FG VV002
     FM301600 00000KT P6SM VCFG FEW001 SCT120 OVC150
     FM301800 08005KT P6SM SCT120 OVC150=



000
FTUS45 KMSO 300648 AAA
TAFGPI
TAF AMD
KGPI 300648Z 3007/3106 00000KT 1SM BR BKN003
     FM301600 00000KT P6SM VCFG FEW001 SCT120 OVC150
     FM301800 08005KT P6SM SCT120 OVC150=



000
FTUS45 KMSO 300538
TAFGPI
TAF
KGPI 300538Z 3006/3106 00000KT 4SM BR SCT002 SCT060
     FM300900 00000KT 1SM BR BKN003
     FM301600 00000KT P6SM VCFG FEW001 SCT120 OVC150
     FM301800 08005KT P6SM SCT120 OVC150=



000
FTUS45 KMSO 300538
TAFMSO
TAF
KMSO 300538Z 3006/3106 00000KT P6SM VCFG FEW005 SCT013
      TEMPO 3006/3010 2SM BR SCT005 BKN013
     FM301100 00000KT 2SM BR BKN006
     FM301600 12003KT P6SM BKN150=



000
FTUS45 KMSO 300538
TAFSMN
TAF
KSMN 300538Z 3006/3106 00000KT P6SM SCT160
      AMD LTD TO CLD VIS AND WIND=



000
FTUS45 KMSO 300538
TAFBTM
TAF
KBTM 300538Z 3006/3106 VRB05KT P6SM BKN150=



000
FTUS45 KMSO 292336
TAFBTM
TAF
KBTM 292336Z 3000/3024 29007KT P6SM BKN060
     FM300300 VRB03KT P6SM SCT060 OVC150
     FM301300 VRB05KT P6SM BKN150=



000
FTUS45 KMSO 292336
TAFSMN
TAF
KSMN 292336Z 3000/3024 VRB05KT P6SM FEW070
     FM300200 00000KT P6SM SCT160
      AMD LTD TO CLD VIS AND WIND=



000
FTUS45 KMSO 292336
TAFGPI
TAF
KGPI 292336Z 3000/3024 15006KT P6SM VCSH SCT030 OVC060
     FM300500 00000KT 4SM BR SCT002 SCT060
     FM300900 00000KT 1SM BR BKN003
     FM301600 00000KT P6SM VCFG FEW001 SCT120 OVC150
     FM301800 08005KT P6SM SCT120 OVC150=



000
FTUS45 KMSO 292336
TAFMSO
TAF
KMSO 292336Z 3000/3024 VRB04KT P6SM VCSH BKN060
     FM300200 VRB04KT P6SM FEW250
     FM300900 00000KT P6SM VCFG SCT005
     FM301100 00000KT 2SM BR BKN006
     FM301600 12003KT P6SM BKN150=



000
FTUS45 KMSO 291738
TAFSMN
TAF
KSMN 291738Z 2918/3018 VRB03KT P6SM BKN070
     FM300200 00000KT P6SM OVC190
      AMD LTD TO CLD VIS AND WIND=



000
FTUS45 KMSO 291738
TAFMSO
TAF
KMSO 291738Z 2918/3018 VRB05KT P6SM VCSH SCT050 OVC070
     FM291900 28006KT P6SM BKN070
     FM300600 VRB04KT P6SM FEW250
     FM300900 00000KT P6SM VCFG SCT005
     FM301100 00000KT 2SM BR BKN006
     FM301600 VRB03KT P6SM BKN150=



000
FTUS45 KMSO 291738
TAFBTM
TAF
KBTM 291738Z 2918/3018 28012G20KT P6SM BKN070
     FM300000 30006KT P6SM SCT070 SCT220
     FM300100 VRB03KT P6SM OVC150
     FM301300 VRB03KT P6SM BKN080=



000
FTUS45 KMSO 291738
TAFGPI
TAF
KGPI 291738Z 2918/3018 VRB04KT P6SM VCSH SCT005 BKN030 OVC040
     FM292000 18006KT P6SM FEW040 OVC060
     FM300500 00000KT 4SM BR SCT002 SCT060
     FM300900 00000KT 1SM BR BKN003
     FM301600 00000KT P6SM VCFG FEW001 SCT120 OVC180=



000
FTUS45 KMSO 291421 AAA
TAFGPI
TAF AMD
KGPI 291421Z 2914/3012 VRB03KT P6SM VCSH BKN050 OVC080
     FM291600 VRB04KT P6SM VCSH BKN040
     FM292000 18006KT P6SM BKN070
     FM300900 00000KT 5SM BR SCT002=



000
FTUS45 KMSO 291400 AAB
TAFMSO
TAF AMD
KMSO 291400Z 2914/3012 00000KT 1SM BR BKN010 OVC035
      TEMPO 2914/2915 1/4SM FG BKN005
     FM291600 VRB04KT P6SM VCSH OVC040
     FM291800 28006KT P6SM BKN070
     FM300000 VRB04KT P6SM FEW150=



000
FTUS45 KMSO 291239 AAA
TAFMSO
TAF AMD
KMSO 291239Z 2913/3012 00000KT 1SM BR VCFG BKN010 OVC035
     FM291400 VRB04KT P6SM VCSH OVC040
     FM291800 28006KT P6SM BKN070
     FM300000 VRB04KT P6SM FEW150=



000
FTUS45 KMSO 291134
TAFSMN
TAF
KSMN 291134Z 2912/3012 VRB04KT P6SM VCSH BKN060
     FM291600 VRB03KT P6SM BKN060
     FM292100 VRB04KT P6SM SCT120
      AMD LTD TO CLD VIS AND WIND=



000
FTUS45 KMSO 291134
TAFMSO
TAF
KMSO 291134Z 2912/3012 VRB04KT P6SM VCSH OVC040
     FM291800 28006KT P6SM BKN070
     FM300000 VRB04KT P6SM FEW150=



000
FTUS45 KMSO 291134
TAFGPI
TAF
KGPI 291134Z 2912/3012 VRB03KT P6SM VCSH BKN010 OVC040
     FM291600 VRB04KT P6SM VCSH BKN040
     FM292000 18006KT P6SM BKN070
     FM300900 00000KT 5SM BR SCT002=



000
FTUS45 KMSO 291134
TAFBTM
TAF
KBTM 291134Z 2912/3012 VRB05KT P6SM VCSH BKN040
     FM291800 30012G20KT P6SM SCT070
     FM300000 30006KT P6SM SCT120=



000
FTUS45 KMSO 290957 AAB
TAFBTM
TAF AMD
KBTM 290957Z 2910/3006 VRB05KT P6SM VCSH BKN035
     FM291800 30012G20KT P6SM SCT070
     FM300000 30007KT P6SM SCT120=



000
FTUS45 KMSO 290811 AAA
TAFBTM
TAF AMD
KBTM 290811Z 2908/3006 VRB05KT 4SM -SHSNRA BKN030
     FM291000 VRB05KT P6SM VCSH BKN030
     FM291800 30012G20KT P6SM SCT070
     FM300000 30007KT P6SM SCT120=



000
FTUS45 KMSO 290535
TAFGPI
TAF
KGPI 290535Z 2906/3006 VRB05KT 5SM -SHRA BKN030 OVC040
     FM290800 VRB03KT P6SM VCSH BKN020 OVC040
     FM291600 VRB04KT P6SM VCSH BKN040
     FM292000 18007KT P6SM BKN070=



000
FTUS45 KMSO 290535
TAFBTM
TAF
KBTM 290535Z 2906/3006 VRB05KT P6SM VCSH BKN060 BKN120
     FM290615 VRB05KT 4SM -SHSN BKN030
     FM290900 VRB05KT P6SM VCSH BKN030
     FM291800 30012G20KT P6SM SCT070
     FM300000 30007KT P6SM SCT120=



000
FTUS45 KMSO 290535
TAFSMN
TAF
KSMN 290535Z 2906/3006 VRB04KT P6SM BKN120
     FM290700 VRB04KT P6SM VCSH BKN060
     FM291600 VRB05KT P6SM BKN060
      AMD LTD TO CLD VIS AND WIND=



000
FTUS45 KMSO 290535
TAFMSO
TAF
KMSO 290535Z 2906/3006 VRB04KT 5SM -SHRA BKN030 OVC050
     FM291000 VRB04KT P6SM VCSH BKN040
     FM291800 26006KT P6SM BKN070=



000
FTUS45 KMSO 290232 AAB
TAFMSO
TAF AMD
KMSO 290232Z 2903/2924 VRB05KT P6SM VCSH OVC060
     FM290400 VRB04KT 4SM -SHRA BKN030 OVC050
     FM291000 VRB04KT P6SM VCSH BKN040
     FM291800 26006KT P6SM VCSH BKN050=



000
FTUS45 KMSO 290231 AAA
TAFGPI
TAF AMD
KGPI 290231Z 2903/2924 VRB03KT P6SM VCSH OVC045
     FM290400 VRB05KT 5SM -SHRA BKN030 OVC040
     FM290800 VRB03KT P6SM VCSH BKN020 OVC040
     FM291700 18007KT P6SM VCSH BKN040=



    US Dept of Commerce
    National Oceanic and Atmospheric Administration
    National Weather Service
    1325 East West Highway
    Silver Spring, MD 20910
    Page Author: NWS Internet Services Team
Disclaimer
Information Quality
Credits
Glossary
Privacy Policy
Freedom of Information Act (FOIA)
About Us
Career Opportunities